sensor_id;sensor_type;location;lat;lon;timestamp;P1;durP1;ratioP1;P2;durP2;ratioP2
4420;SDS011;11824;51.178;13.546;2022-09-23T00:01:11;14.50;;;8.87;;
4420;SDS011;11824;51.178;13.546;2022-09-23T00:03:43;15.50;;;8.73;;
4420;SDS011;11824;51.178;13.546;2022-09-23T00:06:13;14.83;;;9.20;;
4420;SDS011;11824;51.178;13.546;2022-09-23T00:08:43;12.27;;;8.87;;
4420;SDS011;11824;51.178;13.546;2022-09-23T00:11:12;16.20;;;8.97;;
4420;SDS011;11824;51.178;13.546;2022-09-23T00:13:43;15.63;;;10.10;;
4420;SDS011;11824;51.178;13.546;2022-09-23T00:16:14;13.50;;;8.90;;
4420;SDS011;11824;51.178;13.546;2022-09-23T00:18:46;10.90;;;8.37;;
4420;SDS011;11824;51.178;13.546;2022-09-23T00:21:15;18.13;;;9.10;;
4420;SDS011;11824;51.178;13.546;2022-09-23T00:23:46;14.70;;;9.77;;
4420;SDS011;11824;51.178;13.546;2022-09-23T00:26:15;15.87;;;8.60;;
4420;SDS011;11824;51.178;13.546;2022-09-23T00:28:45;14.00;;;9.50;;
4420;SDS011;11824;51.178;13.546;2022-09-23T00:31:18;17.10;;;9.50;;
4420;SDS011;11824;51.178;13.546;2022-09-23T00:33:52;13.10;;;8.87;;
4420;SDS011;11824;51.178;13.546;2022-09-23T00:36:22;10.87;;;8.57;;
4420;SDS011;11824;51.178;13.546;2022-09-23T00:38:52;16.90;;;10.37;;
4420;SDS011;11824;51.178;13.546;2022-09-23T00:41:21;17.97;;;10.17;;
4420;SDS011;11824;51.178;13.546;2022-09-23T00:43:51;18.70;;;10.23;;
4420;SDS011;11824;51.178;13.546;2022-09-23T00:46:21;14.20;;;9.13;;
4420;SDS011;11824;51.178;13.546;2022-09-23T00:48:56;12.90;;;8.37;;
4420;SDS011;11824;51.178;13.546;2022-09-23T00:51:29;13.50;;;8.57;;
4420;SDS011;11824;51.178;13.546;2022-09-23T00:54:00;12.03;;;8.60;;
4420;SDS011;11824;51.178;13.546;2022-09-23T00:56:30;13.73;;;8.93;;
4420;SDS011;11824;51.178;13.546;2022-09-23T00:59:00;13.17;;;8.80;;
4420;SDS011;11824;51.178;13.546;2022-09-23T01:01:28;12.50;;;8.57;;
4420;SDS011;11824;51.178;13.546;2022-09-23T01:03:58;12.93;;;9.10;;
4420;SDS011;11824;51.178;13.546;2022-09-23T01:06:27;12.50;;;8.70;;
4420;SDS011;11824;51.178;13.546;2022-09-23T01:08:56;10.50;;;7.80;;
4420;SDS011;11824;51.178;13.546;2022-09-23T01:11:29;12.90;;;8.07;;
4420;SDS011;11824;51.178;13.546;2022-09-23T01:14:13;21.90;;;9.40;;
4420;SDS011;11824;51.178;13.546;2022-09-23T01:16:54;13.40;;;8.57;;
4420;SDS011;11824;51.178;13.546;2022-09-23T01:19:45;12.73;;;8.70;;
4420;SDS011;11824;51.178;13.546;2022-09-23T01:22:51;20.53;;;10.30;;
4420;SDS011;11824;51.178;13.546;2022-09-23T01:25:33;17.03;;;8.33;;
4420;SDS011;11824;51.178;13.546;2022-09-23T01:28:20;16.83;;;9.07;;
4420;SDS011;11824;51.178;13.546;2022-09-23T01:31:04;12.63;;;8.77;;
4420;SDS011;11824;51.178;13.546;2022-09-23T01:33:42;12.47;;;8.90;;
4420;SDS011;11824;51.178;13.546;2022-09-23T01:36:21;11.97;;;7.87;;
4420;SDS011;11824;51.178;13.546;2022-09-23T01:38:54;15.33;;;9.30;;
4420;SDS011;11824;51.178;13.546;2022-09-23T01:41:31;24.23;;;8.93;;
4420;SDS011;11824;51.178;13.546;2022-09-23T01:44:15;14.50;;;8.67;;
4420;SDS011;11824;51.178;13.546;2022-09-23T01:46:50;14.37;;;8.60;;
4420;SDS011;11824;51.178;13.546;2022-09-23T01:49:22;15.83;;;7.93;;
4420;SDS011;11824;51.178;13.546;2022-09-23T01:51:56;19.83;;;9.37;;
4420;SDS011;11824;51.178;13.546;2022-09-23T01:54:27;12.07;;;8.10;;
4420;SDS011;11824;51.178;13.546;2022-09-23T01:57:02;13.70;;;8.60;;
4420;SDS011;11824;51.178;13.546;2022-09-23T01:59:36;13.97;;;7.73;;
4420;SDS011;11824;51.178;13.546;2022-09-23T02:02:09;18.67;;;9.30;;
4420;SDS011;11824;51.178;13.546;2022-09-23T02:04:43;12.80;;;7.93;;
4420;SDS011;11824;51.178;13.546;2022-09-23T02:07:16;10.87;;;8.10;;
4420;SDS011;11824;51.178;13.546;2022-09-23T02:09:52;12.10;;;8.83;;
4420;SDS011;11824;51.178;13.546;2022-09-23T02:12:23;13.03;;;7.80;;
4420;SDS011;11824;51.178;13.546;2022-09-23T02:14:57;11.43;;;6.97;;
4420;SDS011;11824;51.178;13.546;2022-09-23T02:17:31;11.17;;;8.60;;
4420;SDS011;11824;51.178;13.546;2022-09-23T02:20:05;14.87;;;8.23;;
4420;SDS011;11824;51.178;13.546;2022-09-23T02:22:37;11.40;;;8.00;;
4420;SDS011;11824;51.178;13.546;2022-09-23T02:25:07;12.57;;;8.63;;
4420;SDS011;11824;51.178;13.546;2022-09-23T02:27:39;12.43;;;7.93;;
4420;SDS011;11824;51.178;13.546;2022-09-23T02:30:13;14.47;;;9.33;;
4420;SDS011;11824;51.178;13.546;2022-09-23T02:32:48;11.10;;;8.40;;
4420;SDS011;11824;51.178;13.546;2022-09-23T02:35:23;22.73;;;9.77;;
4420;SDS011;11824;51.178;13.546;2022-09-23T02:38:00;13.67;;;7.60;;
4420;SDS011;11824;51.178;13.546;2022-09-23T02:40:38;15.87;;;8.20;;
4420;SDS011;11824;51.178;13.546;2022-09-23T02:43:15;42.20;;;11.27;;
4420;SDS011;11824;51.178;13.546;2022-09-23T02:45:50;19.63;;;8.00;;
4420;SDS011;11824;51.178;13.546;2022-09-23T02:48:21;20.93;;;10.67;;
4420;SDS011;11824;51.178;13.546;2022-09-23T02:50:53;12.23;;;8.10;;
4420;SDS011;11824;51.178;13.546;2022-09-23T02:53:25;11.30;;;8.70;;
4420;SDS011;11824;51.178;13.546;2022-09-23T02:55:54;18.70;;;9.00;;
4420;SDS011;11824;51.178;13.546;2022-09-23T02:58:23;12.20;;;9.37;;
4420;SDS011;11824;51.178;13.546;2022-09-23T03:00:55;28.07;;;9.40;;
4420;SDS011;11824;51.178;13.546;2022-09-23T03:03:36;14.90;;;8.67;;
4420;SDS011;11824;51.178;13.546;2022-09-23T03:06:13;9.10;;;8.00;;
4420;SDS011;11824;51.178;13.546;2022-09-23T03:08:50;29.23;;;9.00;;
4420;SDS011;11824;51.178;13.546;2022-09-23T03:11:23;53.50;;;10.30;;
4420;SDS011;11824;51.178;13.546;2022-09-23T03:14:02;31.33;;;11.37;;
4420;SDS011;11824;51.178;13.546;2022-09-23T03:16:44;20.70;;;9.50;;
4420;SDS011;11824;51.178;13.546;2022-09-23T03:19:22;16.53;;;8.33;;
4420;SDS011;11824;51.178;13.546;2022-09-23T03:21:58;27.33;;;10.50;;
4420;SDS011;11824;51.178;13.546;2022-09-23T03:24:31;17.03;;;9.10;;
4420;SDS011;11824;51.178;13.546;2022-09-23T03:27:02;18.97;;;10.33;;
4420;SDS011;11824;51.178;13.546;2022-09-23T03:29:39;22.10;;;9.70;;
4420;SDS011;11824;51.178;13.546;2022-09-23T03:32:10;27.23;;;11.30;;
4420;SDS011;11824;51.178;13.546;2022-09-23T03:34:41;22.60;;;10.43;;
4420;SDS011;11824;51.178;13.546;2022-09-23T03:37:15;18.07;;;9.67;;
4420;SDS011;11824;51.178;13.546;2022-09-23T03:39:47;18.37;;;10.63;;
4420;SDS011;11824;51.178;13.546;2022-09-23T03:42:19;16.90;;;10.30;;
4420;SDS011;11824;51.178;13.546;2022-09-23T03:44:51;13.40;;;8.70;;
4420;SDS011;11824;51.178;13.546;2022-09-23T03:47:23;40.30;;;20.67;;
4420;SDS011;11824;51.178;13.546;2022-09-23T03:49:54;20.60;;;12.57;;
4420;SDS011;11824;51.178;13.546;2022-09-23T03:52:23;23.90;;;12.80;;
4420;SDS011;11824;51.178;13.546;2022-09-23T03:54:52;22.77;;;10.97;;
4420;SDS011;11824;51.178;13.546;2022-09-23T03:57:21;32.93;;;11.50;;
4420;SDS011;11824;51.178;13.546;2022-09-23T03:59:51;30.57;;;10.77;;
4420;SDS011;11824;51.178;13.546;2022-09-23T04:02:19;16.10;;;8.40;;
4420;SDS011;11824;51.178;13.546;2022-09-23T04:04:48;17.77;;;9.83;;
4420;SDS011;11824;51.178;13.546;2022-09-23T04:07:18;15.63;;;9.03;;
4420;SDS011;11824;51.178;13.546;2022-09-23T04:09:46;13.37;;;9.43;;
4420;SDS011;11824;51.178;13.546;2022-09-23T04:12:15;22.07;;;9.40;;
4420;SDS011;11824;51.178;13.546;2022-09-23T04:14:44;14.93;;;10.00;;
4420;SDS011;11824;51.178;13.546;2022-09-23T04:17:13;16.27;;;9.43;;
4420;SDS011;11824;51.178;13.546;2022-09-23T04:19:42;18.27;;;9.07;;
4420;SDS011;11824;51.178;13.546;2022-09-23T04:22:11;13.50;;;9.70;;
4420;SDS011;11824;51.178;13.546;2022-09-23T04:24:41;17.17;;;9.27;;
4420;SDS011;11824;51.178;13.546;2022-09-23T04:27:10;27.40;;;10.73;;
4420;SDS011;11824;51.178;13.546;2022-09-23T04:29:38;53.57;;;22.20;;
4420;SDS011;11824;51.178;13.546;2022-09-23T04:32:07;43.27;;;21.13;;
4420;SDS011;11824;51.178;13.546;2022-09-23T04:34:35;48.00;;;23.27;;
4420;SDS011;11824;51.178;13.546;2022-09-23T04:37:04;42.40;;;24.03;;
4420;SDS011;11824;51.178;13.546;2022-09-23T04:39:32;57.90;;;16.50;;
4420;SDS011;11824;51.178;13.546;2022-09-23T04:42:02;33.00;;;15.03;;
4420;SDS011;11824;51.178;13.546;2022-09-23T04:44:30;26.53;;;16.57;;
4420;SDS011;11824;51.178;13.546;2022-09-23T04:47:00;35.93;;;16.63;;
4420;SDS011;11824;51.178;13.546;2022-09-23T04:49:29;34.67;;;14.20;;
4420;SDS011;11824;51.178;13.546;2022-09-23T04:51:59;20.83;;;10.17;;
4420;SDS011;11824;51.178;13.546;2022-09-23T04:54:28;18.87;;;11.00;;
4420;SDS011;11824;51.178;13.546;2022-09-23T04:56:56;37.73;;;11.40;;
4420;SDS011;11824;51.178;13.546;2022-09-23T04:59:26;22.23;;;10.33;;
4420;SDS011;11824;51.178;13.546;2022-09-23T05:01:55;30.27;;;11.27;;
4420;SDS011;11824;51.178;13.546;2022-09-23T05:04:23;41.13;;;11.83;;
4420;SDS011;11824;51.178;13.546;2022-09-23T05:06:52;26.33;;;14.40;;
4420;SDS011;11824;51.178;13.546;2022-09-23T05:09:25;55.83;;;14.40;;
4420;SDS011;11824;51.178;13.546;2022-09-23T05:11:54;24.30;;;12.20;;
4420;SDS011;11824;51.178;13.546;2022-09-23T05:14:23;19.53;;;11.83;;
4420;SDS011;11824;51.178;13.546;2022-09-23T05:16:52;28.60;;;14.33;;
4420;SDS011;11824;51.178;13.546;2022-09-23T05:19:21;27.73;;;13.80;;
4420;SDS011;11824;51.178;13.546;2022-09-23T05:21:49;35.03;;;13.73;;
4420;SDS011;11824;51.178;13.546;2022-09-23T05:24:18;41.00;;;14.00;;
4420;SDS011;11824;51.178;13.546;2022-09-23T05:26:49;75.47;;;15.47;;
4420;SDS011;11824;51.178;13.546;2022-09-23T05:29:19;46.73;;;14.90;;
4420;SDS011;11824;51.178;13.546;2022-09-23T05:31:47;56.43;;;14.77;;
4420;SDS011;11824;51.178;13.546;2022-09-23T05:34:17;59.40;;;15.93;;
4420;SDS011;11824;51.178;13.546;2022-09-23T05:36:46;60.90;;;15.17;;
4420;SDS011;11824;51.178;13.546;2022-09-23T05:39:14;39.77;;;16.20;;
4420;SDS011;11824;51.178;13.546;2022-09-23T05:41:43;55.20;;;16.30;;
4420;SDS011;11824;51.178;13.546;2022-09-23T05:44:11;29.83;;;14.30;;
4420;SDS011;11824;51.178;13.546;2022-09-23T05:46:40;34.20;;;14.90;;
4420;SDS011;11824;51.178;13.546;2022-09-23T05:49:08;23.50;;;11.80;;
4420;SDS011;11824;51.178;13.546;2022-09-23T05:51:38;37.00;;;12.63;;
4420;SDS011;11824;51.178;13.546;2022-09-23T05:54:07;28.13;;;13.50;;
4420;SDS011;11824;51.178;13.546;2022-09-23T05:56:35;23.53;;;12.40;;
4420;SDS011;11824;51.178;13.546;2022-09-23T05:59:04;16.53;;;10.67;;
4420;SDS011;11824;51.178;13.546;2022-09-23T06:01:33;18.13;;;10.27;;
4420;SDS011;11824;51.178;13.546;2022-09-23T06:04:04;44.63;;;22.87;;
4420;SDS011;11824;51.178;13.546;2022-09-23T06:06:35;26.90;;;14.07;;
4420;SDS011;11824;51.178;13.546;2022-09-23T06:09:06;12.70;;;10.10;;
4420;SDS011;11824;51.178;13.546;2022-09-23T06:11:36;16.03;;;10.60;;
4420;SDS011;11824;51.178;13.546;2022-09-23T06:14:06;16.63;;;10.03;;
4420;SDS011;11824;51.178;13.546;2022-09-23T06:16:39;20.20;;;9.50;;
4420;SDS011;11824;51.178;13.546;2022-09-23T06:19:08;14.97;;;8.93;;
4420;SDS011;11824;51.178;13.546;2022-09-23T06:21:37;15.00;;;8.77;;
4420;SDS011;11824;51.178;13.546;2022-09-23T06:24:08;18.00;;;9.63;;
4420;SDS011;11824;51.178;13.546;2022-09-23T06:26:44;15.60;;;9.37;;
4420;SDS011;11824;51.178;13.546;2022-09-23T06:29:14;14.70;;;9.20;;
4420;SDS011;11824;51.178;13.546;2022-09-23T06:31:43;14.83;;;11.10;;
4420;SDS011;11824;51.178;13.546;2022-09-23T06:34:12;17.13;;;11.03;;
4420;SDS011;11824;51.178;13.546;2022-09-23T06:36:41;15.10;;;9.87;;
4420;SDS011;11824;51.178;13.546;2022-09-23T06:39:13;15.47;;;10.27;;
4420;SDS011;11824;51.178;13.546;2022-09-23T06:41:42;16.50;;;10.77;;
4420;SDS011;11824;51.178;13.546;2022-09-23T06:44:10;15.03;;;10.87;;
4420;SDS011;11824;51.178;13.546;2022-09-23T06:46:39;21.00;;;10.80;;
4420;SDS011;11824;51.178;13.546;2022-09-23T06:49:08;14.77;;;11.53;;
4420;SDS011;11824;51.178;13.546;2022-09-23T06:51:38;22.30;;;14.07;;
4420;SDS011;11824;51.178;13.546;2022-09-23T06:54:06;16.67;;;11.10;;
4420;SDS011;11824;51.178;13.546;2022-09-23T06:56:37;25.60;;;13.00;;
4420;SDS011;11824;51.178;13.546;2022-09-23T06:59:08;18.60;;;10.87;;
4420;SDS011;11824;51.178;13.546;2022-09-23T07:01:38;18.50;;;12.30;;
4420;SDS011;11824;51.178;13.546;2022-09-23T07:04:07;14.77;;;11.83;;
4420;SDS011;11824;51.178;13.546;2022-09-23T07:06:39;15.93;;;11.50;;
4420;SDS011;11824;51.178;13.546;2022-09-23T07:09:07;18.83;;;12.40;;
4420;SDS011;11824;51.178;13.546;2022-09-23T07:11:38;15.63;;;11.90;;
4420;SDS011;11824;51.178;13.546;2022-09-23T07:14:06;23.03;;;12.80;;
4420;SDS011;11824;51.178;13.546;2022-09-23T07:16:35;21.73;;;12.30;;
4420;SDS011;11824;51.178;13.546;2022-09-23T07:19:03;15.07;;;11.43;;
4420;SDS011;11824;51.178;13.546;2022-09-23T07:21:32;15.83;;;10.50;;
4420;SDS011;11824;51.178;13.546;2022-09-23T07:24:02;18.13;;;12.20;;
4420;SDS011;11824;51.178;13.546;2022-09-23T07:26:31;13.80;;;10.87;;
4420;SDS011;11824;51.178;13.546;2022-09-23T07:29:01;16.67;;;10.87;;
4420;SDS011;11824;51.178;13.546;2022-09-23T07:31:30;14.80;;;9.90;;
4420;SDS011;11824;51.178;13.546;2022-09-23T07:34:05;12.17;;;8.93;;
4420;SDS011;11824;51.178;13.546;2022-09-23T07:36:37;21.73;;;12.73;;
4420;SDS011;11824;51.178;13.546;2022-09-23T07:39:07;21.50;;;11.93;;
4420;SDS011;11824;51.178;13.546;2022-09-23T07:41:36;17.13;;;8.93;;
4420;SDS011;11824;51.178;13.546;2022-09-23T07:44:10;12.20;;;9.57;;
4420;SDS011;11824;51.178;13.546;2022-09-23T07:46:38;20.00;;;10.27;;
4420;SDS011;11824;51.178;13.546;2022-09-23T07:49:07;13.10;;;9.67;;
4420;SDS011;11824;51.178;13.546;2022-09-23T07:51:37;14.00;;;9.87;;
4420;SDS011;11824;51.178;13.546;2022-09-23T07:54:09;13.43;;;9.63;;
4420;SDS011;11824;51.178;13.546;2022-09-23T07:56:39;13.10;;;9.40;;
4420;SDS011;11824;51.178;13.546;2022-09-23T07:59:11;12.03;;;9.70;;
4420;SDS011;11824;51.178;13.546;2022-09-23T08:01:43;10.40;;;8.80;;
4420;SDS011;11824;51.178;13.546;2022-09-23T08:04:13;11.30;;;8.10;;
4420;SDS011;11824;51.178;13.546;2022-09-23T08:06:44;16.17;;;8.73;;
4420;SDS011;11824;51.178;13.546;2022-09-23T08:09:15;17.60;;;9.73;;
4420;SDS011;11824;51.178;13.546;2022-09-23T08:11:44;22.00;;;9.80;;
4420;SDS011;11824;51.178;13.546;2022-09-23T08:14:15;11.50;;;8.60;;
4420;SDS011;11824;51.178;13.546;2022-09-23T08:16:44;14.67;;;7.87;;
4420;SDS011;11824;51.178;13.546;2022-09-23T08:19:13;15.63;;;8.50;;
4420;SDS011;11824;51.178;13.546;2022-09-23T08:21:42;11.33;;;7.43;;
4420;SDS011;11824;51.178;13.546;2022-09-23T08:24:13;18.23;;;9.33;;
4420;SDS011;11824;51.178;13.546;2022-09-23T08:26:43;11.40;;;8.10;;
4420;SDS011;11824;51.178;13.546;2022-09-23T08:29:13;12.13;;;7.77;;
4420;SDS011;11824;51.178;13.546;2022-09-23T08:31:44;12.43;;;7.80;;
4420;SDS011;11824;51.178;13.546;2022-09-23T08:34:14;10.67;;;7.87;;
4420;SDS011;11824;51.178;13.546;2022-09-23T08:36:44;16.70;;;9.03;;
4420;SDS011;11824;51.178;13.546;2022-09-23T08:39:13;14.27;;;8.80;;
4420;SDS011;11824;51.178;13.546;2022-09-23T08:41:44;16.13;;;9.67;;
4420;SDS011;11824;51.178;13.546;2022-09-23T08:44:26;14.67;;;8.50;;
4420;SDS011;11824;51.178;13.546;2022-09-23T08:47:01;14.23;;;8.37;;
4420;SDS011;11824;51.178;13.546;2022-09-23T08:49:38;10.00;;;7.47;;
4420;SDS011;11824;51.178;13.546;2022-09-23T08:52:16;12.77;;;7.70;;
4420;SDS011;11824;51.178;13.546;2022-09-23T08:54:50;14.80;;;7.30;;
4420;SDS011;11824;51.178;13.546;2022-09-23T08:57:24;10.90;;;6.97;;
4420;SDS011;11824;51.178;13.546;2022-09-23T09:00:03;12.93;;;6.70;;
4420;SDS011;11824;51.178;13.546;2022-09-23T09:02:32;13.97;;;7.00;;
4420;SDS011;11824;51.178;13.546;2022-09-23T09:05:04;24.33;;;7.83;;
4420;SDS011;11824;51.178;13.546;2022-09-23T09:07:36;10.30;;;7.40;;
4420;SDS011;11824;51.178;13.546;2022-09-23T09:10:09;11.50;;;7.47;;
4420;SDS011;11824;51.178;13.546;2022-09-23T09:12:44;11.80;;;6.80;;
4420;SDS011;11824;51.178;13.546;2022-09-23T09:15:17;11.70;;;7.23;;
4420;SDS011;11824;51.178;13.546;2022-09-23T09:17:52;9.90;;;6.30;;
4420;SDS011;11824;51.178;13.546;2022-09-23T09:20:28;10.07;;;6.77;;
4420;SDS011;11824;51.178;13.546;2022-09-23T09:23:05;10.80;;;5.87;;
4420;SDS011;11824;51.178;13.546;2022-09-23T09:25:46;13.03;;;5.90;;
4420;SDS011;11824;51.178;13.546;2022-09-23T09:28:18;8.30;;;5.60;;
4420;SDS011;11824;51.178;13.546;2022-09-23T09:30:51;10.80;;;6.73;;
4420;SDS011;11824;51.178;13.546;2022-09-23T09:33:23;8.43;;;5.03;;
4420;SDS011;11824;51.178;13.546;2022-09-23T09:36:00;16.80;;;6.37;;
4420;SDS011;11824;51.178;13.546;2022-09-23T09:38:38;7.93;;;6.10;;
4420;SDS011;11824;51.178;13.546;2022-09-23T09:41:09;10.03;;;6.70;;
4420;SDS011;11824;51.178;13.546;2022-09-23T09:43:43;7.70;;;6.87;;
4420;SDS011;11824;51.178;13.546;2022-09-23T09:46:25;8.83;;;6.83;;
4420;SDS011;11824;51.178;13.546;2022-09-23T09:49:06;12.40;;;7.07;;
4420;SDS011;11824;51.178;13.546;2022-09-23T09:51:38;7.20;;;6.10;;
4420;SDS011;11824;51.178;13.546;2022-09-23T09:54:16;7.83;;;5.87;;
4420;SDS011;11824;51.178;13.546;2022-09-23T09:56:49;9.80;;;6.67;;
4420;SDS011;11824;51.178;13.546;2022-09-23T09:59:23;13.23;;;6.20;;
4420;SDS011;11824;51.178;13.546;2022-09-23T10:02:17;14.53;;;5.67;;
4420;SDS011;11824;51.178;13.546;2022-09-23T10:04:55;12.20;;;5.67;;
4420;SDS011;11824;51.178;13.546;2022-09-23T10:07:27;6.10;;;4.27;;
4420;SDS011;11824;51.178;13.546;2022-09-23T10:09:57;6.50;;;4.60;;
4420;SDS011;11824;51.178;13.546;2022-09-23T10:12:58;5.63;;;4.10;;
4420;SDS011;11824;51.178;13.546;2022-09-23T10:15:41;9.63;;;4.97;;
4420;SDS011;11824;51.178;13.546;2022-09-23T10:18:16;6.60;;;3.47;;
4420;SDS011;11824;51.178;13.546;2022-09-23T10:20:46;3.43;;;3.13;;
4420;SDS011;11824;51.178;13.546;2022-09-23T10:23:16;4.30;;;3.20;;
4420;SDS011;11824;51.178;13.546;2022-09-23T10:25:54;2.50;;;2.30;;
4420;SDS011;11824;51.178;13.546;2022-09-23T10:31:15;6.40;;;2.70;;
4420;SDS011;11824;51.178;13.546;2022-09-23T10:33:52;3.30;;;2.20;;
4420;SDS011;11824;51.178;13.546;2022-09-23T10:36:22;4.10;;;2.67;;
4420;SDS011;11824;51.178;13.546;2022-09-23T10:38:51;7.43;;;2.57;;
4420;SDS011;11824;51.178;13.546;2022-09-23T10:41:46;4.80;;;2.63;;
4420;SDS011;11824;51.178;13.546;2022-09-23T10:44:52;3.93;;;3.10;;
4420;SDS011;11824;51.178;13.546;2022-09-23T10:47:48;2.83;;;2.30;;
4420;SDS011;11824;51.178;13.546;2022-09-23T10:50:29;4.17;;;2.70;;
4420;SDS011;11824;51.178;13.546;2022-09-23T10:53:08;2.87;;;1.90;;
4420;SDS011;11824;51.178;13.546;2022-09-23T10:55:49;3.33;;;2.33;;
4420;SDS011;11824;51.178;13.546;2022-09-23T10:58:36;5.43;;;2.67;;
4420;SDS011;11824;51.178;13.546;2022-09-23T11:01:19;3.13;;;2.93;;
4420;SDS011;11824;51.178;13.546;2022-09-23T11:07:03;3.03;;;2.50;;
4420;SDS011;11824;51.178;13.546;2022-09-23T11:09:43;4.87;;;2.63;;
4420;SDS011;11824;51.178;13.546;2022-09-23T11:12:21;4.40;;;2.80;;
4420;SDS011;11824;51.178;13.546;2022-09-23T11:15:00;5.57;;;2.67;;
4420;SDS011;11824;51.178;13.546;2022-09-23T11:17:46;2.20;;;2.03;;
4420;SDS011;11824;51.178;13.546;2022-09-23T11:20:44;4.63;;;2.93;;
4420;SDS011;11824;51.178;13.546;2022-09-23T11:23:34;2.33;;;2.20;;
4420;SDS011;11824;51.178;13.546;2022-09-23T11:26:23;2.47;;;1.97;;
4420;SDS011;11824;51.178;13.546;2022-09-23T11:32:31;4.10;;;1.90;;
4420;SDS011;11824;51.178;13.546;2022-09-23T11:35:30;4.20;;;2.07;;
4420;SDS011;11824;51.178;13.546;2022-09-23T11:38:04;4.83;;;2.20;;
4420;SDS011;11824;51.178;13.546;2022-09-23T11:40:39;2.70;;;1.60;;
4420;SDS011;11824;51.178;13.546;2022-09-23T11:43:13;3.57;;;1.40;;
4420;SDS011;11824;51.178;13.546;2022-09-23T11:45:48;2.53;;;1.80;;
4420;SDS011;11824;51.178;13.546;2022-09-23T11:48:22;1.73;;;1.63;;
4420;SDS011;11824;51.178;13.546;2022-09-23T11:50:56;2.40;;;1.63;;
4420;SDS011;11824;51.178;13.546;2022-09-23T11:53:32;3.60;;;1.80;;
4420;SDS011;11824;51.178;13.546;2022-09-23T11:56:12;2.30;;;2.10;;
4420;SDS011;11824;51.178;13.546;2022-09-23T11:59:01;4.23;;;2.10;;
4420;SDS011;11824;51.178;13.546;2022-09-23T12:01:38;3.00;;;1.80;;
4420;SDS011;11824;51.178;13.546;2022-09-23T12:04:14;3.23;;;1.50;;
4420;SDS011;11824;51.178;13.546;2022-09-23T12:06:51;5.30;;;1.83;;
4420;SDS011;11824;51.178;13.546;2022-09-23T12:09:23;2.40;;;2.20;;
4420;SDS011;11824;51.178;13.546;2022-09-23T12:12:19;1.90;;;1.80;;
4420;SDS011;11824;51.178;13.546;2022-09-23T12:14:54;2.20;;;2.00;;
4420;SDS011;11824;51.178;13.546;2022-09-23T12:17:36;1.83;;;1.73;;
4420;SDS011;11824;51.178;13.546;2022-09-23T12:20:25;2.30;;;2.13;;
4420;SDS011;11824;51.178;13.546;2022-09-23T12:23:11;5.17;;;2.67;;
4420;SDS011;11824;51.178;13.546;2022-09-23T12:25:49;3.43;;;2.20;;
4420;SDS011;11824;51.178;13.546;2022-09-23T12:28:25;2.70;;;2.20;;
4420;SDS011;11824;51.178;13.546;2022-09-23T12:30:57;2.80;;;2.30;;
4420;SDS011;11824;51.178;13.546;2022-09-23T12:33:27;3.80;;;1.77;;
4420;SDS011;11824;51.178;13.546;2022-09-23T12:36:01;2.07;;;1.87;;
4420;SDS011;11824;51.178;13.546;2022-09-23T12:38:32;1.97;;;1.80;;
4420;SDS011;11824;51.178;13.546;2022-09-23T12:41:16;7.00;;;1.97;;
4420;SDS011;11824;51.178;13.546;2022-09-23T12:43:51;1.87;;;1.77;;
4420;SDS011;11824;51.178;13.546;2022-09-23T12:46:21;1.87;;;1.70;;
4420;SDS011;11824;51.178;13.546;2022-09-23T12:48:59;3.00;;;1.90;;
4420;SDS011;11824;51.178;13.546;2022-09-23T12:51:29;5.37;;;2.20;;
4420;SDS011;11824;51.178;13.546;2022-09-23T12:56:57;1.93;;;1.70;;
4420;SDS011;11824;51.178;13.546;2022-09-23T12:59:29;2.17;;;1.97;;
4420;SDS011;11824;51.178;13.546;2022-09-23T13:02:21;1.60;;;1.50;;
4420;SDS011;11824;51.178;13.546;2022-09-23T13:05:07;8.53;;;1.97;;
4420;SDS011;11824;51.178;13.546;2022-09-23T13:08:04;1.90;;;1.80;;
4420;SDS011;11824;51.178;13.546;2022-09-23T13:10:37;6.60;;;2.50;;
4420;SDS011;11824;51.178;13.546;2022-09-23T13:13:14;3.90;;;1.53;;
4420;SDS011;11824;51.178;13.546;2022-09-23T13:15:49;2.70;;;2.03;;
4420;SDS011;11824;51.178;13.546;2022-09-23T13:18:22;3.87;;;2.20;;
4420;SDS011;11824;51.178;13.546;2022-09-23T13:21:17;5.20;;;4.03;;
4420;SDS011;11824;51.178;13.546;2022-09-23T13:24:16;5.97;;;3.43;;
4420;SDS011;11824;51.178;13.546;2022-09-23T13:26:48;3.37;;;2.40;;
4420;SDS011;11824;51.178;13.546;2022-09-23T13:29:19;4.53;;;2.40;;
4420;SDS011;11824;51.178;13.546;2022-09-23T13:31:52;4.70;;;4.30;;
4420;SDS011;11824;51.178;13.546;2022-09-23T13:34:23;7.50;;;2.80;;
4420;SDS011;11824;51.178;13.546;2022-09-23T13:36:58;2.60;;;2.10;;
4420;SDS011;11824;51.178;13.546;2022-09-23T13:39:47;7.10;;;1.70;;
4420;SDS011;11824;51.178;13.546;2022-09-23T13:42:18;3.60;;;2.37;;
4420;SDS011;11824;51.178;13.546;2022-09-23T13:44:53;2.10;;;1.90;;
4420;SDS011;11824;51.178;13.546;2022-09-23T13:47:25;1.80;;;1.70;;
4420;SDS011;11824;51.178;13.546;2022-09-23T13:49:56;2.10;;;1.90;;
4420;SDS011;11824;51.178;13.546;2022-09-23T13:52:26;3.80;;;2.27;;
4420;SDS011;11824;51.178;13.546;2022-09-23T13:54:57;2.80;;;2.60;;
4420;SDS011;11824;51.178;13.546;2022-09-23T13:57:27;3.07;;;2.10;;
4420;SDS011;11824;51.178;13.546;2022-09-23T13:59:58;4.80;;;2.50;;
4420;SDS011;11824;51.178;13.546;2022-09-23T14:02:29;4.50;;;2.50;;
4420;SDS011;11824;51.178;13.546;2022-09-23T14:05:08;6.37;;;1.77;;
4420;SDS011;11824;51.178;13.546;2022-09-23T14:07:40;10.67;;;2.30;;
4420;SDS011;11824;51.178;13.546;2022-09-23T14:10:13;3.27;;;1.50;;
4420;SDS011;11824;51.178;13.546;2022-09-23T14:12:46;2.47;;;2.10;;
4420;SDS011;11824;51.178;13.546;2022-09-23T14:15:16;1.73;;;1.63;;
4420;SDS011;11824;51.178;13.546;2022-09-23T14:17:46;5.10;;;1.70;;
4420;SDS011;11824;51.178;13.546;2022-09-23T14:20:18;2.53;;;1.90;;
4420;SDS011;11824;51.178;13.546;2022-09-23T14:23:02;4.40;;;2.00;;
4420;SDS011;11824;51.178;13.546;2022-09-23T14:25:32;4.50;;;2.00;;
4420;SDS011;11824;51.178;13.546;2022-09-23T14:28:01;3.50;;;2.30;;
4420;SDS011;11824;51.178;13.546;2022-09-23T14:30:31;3.63;;;2.07;;
4420;SDS011;11824;51.178;13.546;2022-09-23T14:32:59;3.67;;;1.63;;
4420;SDS011;11824;51.178;13.546;2022-09-23T14:35:37;2.53;;;2.10;;
4420;SDS011;11824;51.178;13.546;2022-09-23T14:38:09;2.10;;;1.90;;
4420;SDS011;11824;51.178;13.546;2022-09-23T14:40:56;2.43;;;2.10;;
4420;SDS011;11824;51.178;13.546;2022-09-23T14:43:39;5.33;;;2.20;;
4420;SDS011;11824;51.178;13.546;2022-09-23T14:46:15;4.43;;;2.70;;
4420;SDS011;11824;51.178;13.546;2022-09-23T14:48:53;2.50;;;2.07;;
4420;SDS011;11824;51.178;13.546;2022-09-23T14:51:28;3.83;;;1.97;;
4420;SDS011;11824;51.178;13.546;2022-09-23T14:56:50;2.13;;;1.50;;
4420;SDS011;11824;51.178;13.546;2022-09-23T14:59:22;4.73;;;1.90;;
4420;SDS011;11824;51.178;13.546;2022-09-23T15:01:53;8.00;;;2.00;;
4420;SDS011;11824;51.178;13.546;2022-09-23T15:04:29;3.90;;;2.13;;
4420;SDS011;11824;51.178;13.546;2022-09-23T15:07:04;5.63;;;2.67;;
4420;SDS011;11824;51.178;13.546;2022-09-23T15:09:42;2.00;;;1.73;;
4420;SDS011;11824;51.178;13.546;2022-09-23T15:12:12;7.87;;;2.30;;
4420;SDS011;11824;51.178;13.546;2022-09-23T15:14:42;1.83;;;1.57;;
4420;SDS011;11824;51.178;13.546;2022-09-23T15:17:16;2.77;;;1.80;;
4420;SDS011;11824;51.178;13.546;2022-09-23T15:19:52;6.07;;;2.93;;
4420;SDS011;11824;51.178;13.546;2022-09-23T15:22:23;3.23;;;1.77;;
4420;SDS011;11824;51.178;13.546;2022-09-23T15:24:54;2.10;;;1.90;;
4420;SDS011;11824;51.178;13.546;2022-09-23T15:27:40;4.70;;;2.77;;
4420;SDS011;11824;51.178;13.546;2022-09-23T15:30:21;3.73;;;1.90;;